Weather at Pagadian Airport

Public forecast

Using degrees Celsius for public forecast. Weather courtesy of forecast.io.

Closest aviation weather report (METAR) to Pagadian Airport

Report is more than 2 hours old.

Closest report is Sibulan Airport, 91.1 nm (168.6 km) N.

2024/07/12 09:00 (retrieved 3 hours ago)

RPVD 120900Z 22004KT 9999 VCSH FEW015 SCT070 OVC220 28/25 Q1005 RMK A2968 VCSH SW W

Closest aviation forecast (TAF) to Pagadian Airport

Closest forecast is Sibulan Airport, 91.1 nm (168.6 km) N.

2024/07/12 06:00 (retrieved 6 hours ago)

TAF RPVD 120500Z 1206/1306 22005KT 9999 FEW015 SCT070 TEMPO 1206/1212 14010KT -SHRA FEW014CB SCT015 BKN070 TEMPO 1212/1218 -SHRA FEW014CB SCT015 BKN070